createdAt,value
2022-08-14T00:02:27.137Z,84.22
2022-08-14T00:04:55.220Z,84.65
2022-08-14T00:07:22.961Z,84.90
2022-08-14T00:10:02.202Z,85.80
2022-08-14T00:12:39.838Z,86.23
2022-08-14T00:15:11.800Z,85.82
2022-08-14T00:17:47.856Z,86.60
2022-08-14T00:20:23.731Z,86.53
2022-08-14T00:22:58.779Z,86.80
2022-08-14T00:25:42.465Z,87.40
2022-08-14T00:28:15.020Z,88.20
2022-08-14T00:30:47.488Z,87.99
2022-08-14T00:33:16.458Z,87.70
2022-08-14T00:36:37.319Z,87.18
2022-08-14T00:38:32.196Z,87.87
2022-08-14T00:41:03.128Z,87.00
2022-08-14T00:43:32.200Z,87.15
2022-08-14T00:46:05.309Z,87.10
2022-08-14T00:48:36.876Z,87.26
2022-08-14T00:51:08.921Z,87.02
2022-08-14T00:53:37.143Z,87.30
2022-08-14T00:56:08.318Z,86.93
2022-08-14T00:58:36.296Z,86.64
2022-08-14T01:01:17.191Z,87.08
2022-08-14T01:03:45.263Z,87.17
2022-08-14T01:06:14.091Z,87.41
2022-08-14T01:08:51.114Z,87.22
2022-08-14T01:11:25.504Z,87.28
2022-08-14T01:14:01.534Z,87.67
2022-08-14T01:16:34.019Z,87.98
2022-08-14T01:19:19.846Z,88.09
2022-08-14T01:21:53.147Z,88.27
2022-08-14T01:24:28.964Z,88.71
2022-08-14T01:27:00.268Z,88.48
2022-08-14T01:29:58.171Z,88.53
2022-08-14T01:32:22.963Z,88.63
2022-08-14T01:35:18.907Z,88.71
2022-08-14T01:37:44.584Z,89.37
2022-08-14T01:40:15.554Z,89.24
2022-08-14T01:42:48.766Z,88.97
2022-08-14T01:45:17.734Z,89.00
2022-08-14T01:48:03.545Z,89.52
2022-08-14T01:50:32.727Z,89.37
2022-08-14T01:53:03.027Z,89.77
2022-08-14T01:55:32.276Z,89.92
2022-08-14T01:58:19.526Z,89.92
2022-08-14T02:00:54.061Z,89.89
2022-08-14T02:03:23.400Z,90.34
2022-08-14T02:05:51.035Z,90.55
2022-08-14T02:08:22.608Z,90.71
2022-08-14T02:11:23.740Z,90.86
2022-08-14T02:13:53.274Z,90.93
2022-08-14T02:16:25.304Z,91.78
2022-08-14T02:18:55.228Z,91.87
2022-08-14T02:21:23.457Z,92.02
2022-08-14T02:23:54.233Z,92.43
2022-08-14T02:26:29.032Z,92.54
2022-08-14T02:29:00.017Z,93.23
2022-08-14T02:31:42.437Z,93.37
2022-08-14T02:34:22.043Z,92.87
2022-08-14T02:37:03.509Z,93.00
2022-08-14T02:39:38.087Z,93.14
2022-08-14T02:42:06.507Z,93.21
2022-08-14T02:44:40.694Z,93.74
2022-08-14T02:47:15.105Z,94.03
2022-08-14T02:49:50.472Z,93.54
2022-08-14T02:52:56.024Z,93.39
2022-08-14T02:55:11.082Z,93.79
2022-08-14T02:57:41.054Z,94.11
2022-08-14T03:00:09.877Z,94.40
2022-08-14T03:02:56.491Z,94.12
2022-08-14T03:05:26.345Z,94.82
2022-08-14T03:07:54.299Z,95.02
2022-08-14T03:10:28.209Z,95.19
2022-08-14T03:13:00.637Z,95.21
2022-08-14T03:15:28.385Z,94.91
2022-08-14T03:17:57.471Z,95.34
2022-08-14T03:20:28.255Z,95.64
2022-08-14T03:22:56.063Z,96.05
2022-08-14T03:25:24.958Z,96.10
2022-08-14T03:27:58.671Z,96.03
2022-08-14T03:30:39.498Z,96.28
2022-08-14T03:33:10.319Z,96.32
2022-08-14T03:35:59.580Z,96.33
2022-08-14T03:39:13.832Z,96.30
2022-08-14T03:41:17.354Z,97.10
2022-08-14T03:43:45.448Z,97.10
2022-08-14T03:46:51.767Z,97.25
2022-08-14T03:49:02.975Z,97.17
2022-08-14T03:51:31.188Z,97.05
2022-08-14T03:54:00.276Z,97.43
2022-08-14T03:56:30.040Z,97.91
2022-08-14T03:59:00.176Z,97.82
2022-08-14T04:01:29.450Z,98.08
2022-08-14T04:04:09.774Z,97.82
2022-08-14T04:06:44.555Z,97.96
2022-08-14T04:09:16.884Z,98.43
2022-08-14T04:11:46.257Z,99.24
2022-08-14T04:14:16.509Z,98.68
2022-08-14T04:16:48.055Z,98.84
2022-08-14T04:19:24.079Z,99.39
2022-08-14T04:22:02.189Z,99.49
2022-08-14T04:24:31.788Z,100.00
2022-08-14T04:27:09.475Z,100.00
2022-08-14T04:29:38.172Z,100.00
2022-08-14T04:33:02.205Z,100.00
2022-08-14T04:34:56.269Z,100.00
2022-08-14T04:37:41.782Z,100.00
2022-08-14T04:40:27.738Z,100.00
2022-08-14T04:43:17.245Z,100.00
2022-08-14T04:45:45.557Z,100.00
2022-08-14T04:48:39.722Z,100.00
2022-08-14T04:51:09.461Z,100.00
2022-08-14T04:53:41.066Z,100.00
2022-08-14T04:56:30.636Z,100.00
2022-08-14T04:59:05.039Z,100.00
2022-08-14T05:01:40.352Z,100.00
2022-08-14T05:04:08.587Z,100.00
2022-08-14T05:06:39.128Z,100.00
2022-08-14T05:09:13.931Z,100.00
2022-08-14T05:11:42.416Z,100.00
2022-08-14T05:14:33.127Z,100.00
2022-08-14T05:17:01.812Z,100.00
2022-08-14T05:19:30.037Z,100.00
2022-08-14T05:22:16.516Z,100.00
2022-08-14T05:24:45.613Z,100.00
2022-08-14T05:27:22.969Z,100.00
2022-08-14T05:29:55.280Z,100.00
2022-08-14T05:32:23.498Z,100.00
2022-08-14T05:34:58.016Z,100.00
2022-08-14T05:37:26.602Z,100.00
2022-08-14T05:39:54.900Z,100.00
2022-08-14T05:42:29.222Z,100.00
2022-08-14T05:45:11.274Z,100.00
2022-08-14T05:47:41.923Z,100.00
2022-08-14T05:50:18.738Z,100.00
2022-08-14T05:52:48.054Z,100.00
2022-08-14T05:55:15.707Z,100.00
2022-08-14T05:57:48.969Z,100.00
2022-08-14T06:00:24.968Z,100.00
2022-08-14T06:02:57.820Z,100.00
2022-08-14T06:05:29.110Z,100.00
2022-08-14T06:07:57.382Z,100.00
2022-08-14T06:10:25.374Z,100.00
2022-08-14T06:12:57.261Z,100.00
2022-08-14T06:15:30.264Z,100.00
2022-08-14T06:18:00.283Z,100.00
2022-08-14T06:20:28.705Z,100.00
2022-08-14T06:22:58.015Z,100.00
2022-08-14T06:25:27.120Z,100.00
2022-08-14T06:27:55.397Z,100.00
2022-08-14T06:30:30.413Z,100.00
2022-08-14T06:33:15.737Z,100.00
2022-08-14T06:35:43.614Z,100.00
2022-08-14T06:38:17.474Z,100.00
2022-08-14T06:40:46.163Z,100.00
2022-08-14T06:43:15.390Z,100.00
2022-08-14T06:45:54.040Z,99.35
2022-08-14T06:48:23.672Z,95.75
2022-08-14T06:50:52.129Z,93.29
2022-08-14T06:53:19.891Z,92.20
2022-08-14T06:55:58.510Z,87.14
2022-08-14T06:58:30.901Z,83.22
2022-08-14T07:01:24.922Z,80.93
2022-08-14T07:04:22.915Z,78.49
2022-08-14T07:06:51.426Z,73.11
2022-08-14T07:09:23.208Z,71.72
2022-08-14T07:11:51.574Z,68.61
2022-08-14T07:14:19.153Z,64.85
2022-08-14T07:16:48.061Z,63.93
2022-08-14T07:19:17.664Z,61.89
2022-08-14T07:21:49.211Z,62.76
2022-08-14T07:24:22.068Z,58.45
2022-08-14T07:26:53.905Z,57.64
2022-08-14T07:29:26.071Z,57.13
2022-08-14T07:31:55.359Z,55.61
2022-08-14T07:34:36.272Z,54.29
2022-08-14T07:37:04.655Z,50.35
2022-08-14T07:39:34.547Z,47.69
2022-08-14T07:42:02.926Z,47.78
2022-08-14T07:44:35.905Z,49.03
2022-08-14T07:47:16.760Z,49.10
2022-08-14T07:49:55.614Z,48.12
2022-08-14T07:52:40.550Z,47.80
2022-08-14T07:55:10.119Z,46.65
2022-08-14T07:57:38.346Z,44.93
2022-08-14T08:00:12.521Z,42.11
2022-08-14T08:03:00.644Z,40.37
2022-08-14T08:05:28.356Z,42.13
2022-08-14T08:07:55.889Z,43.12
2022-08-14T08:10:46.923Z,39.27
2022-08-14T08:13:23.907Z,39.13
2022-08-14T08:15:53.815Z,37.49
2022-08-14T08:18:29.617Z,37.38
2022-08-14T08:21:00.290Z,36.62
2022-08-14T08:23:34.508Z,37.42
2022-08-14T08:26:08.478Z,36.64
2022-08-14T08:28:36.462Z,36.24
2022-08-14T08:31:05.713Z,38.08
2022-08-14T08:33:37.092Z,35.95
2022-08-14T08:36:07.952Z,35.96
2022-08-14T08:39:16.287Z,35.53
2022-08-14T08:41:24.756Z,36.40
2022-08-14T08:43:54.304Z,37.27
2022-08-14T08:46:24.285Z,35.53
2022-08-14T08:51:22.293Z,35.61
2022-08-14T08:53:59.866Z,34.08
2022-08-14T08:56:39.959Z,33.16
2022-08-14T08:59:18.596Z,33.99
2022-08-14T09:01:51.389Z,33.40
2022-08-14T09:04:26.236Z,32.21
2022-08-14T09:07:09.029Z,32.96
2022-08-14T09:09:54.281Z,33.22
2022-08-14T09:12:32.491Z,32.46
2022-08-14T09:15:02.009Z,33.42
2022-08-14T09:17:29.940Z,33.21
2022-08-14T09:20:02.197Z,32.44
2022-08-14T09:22:34.739Z,31.87
2022-08-14T09:25:04.067Z,32.76
2022-08-14T09:27:35.221Z,31.77
2022-08-14T09:30:31.675Z,33.27
2022-08-14T09:32:59.362Z,31.93
2022-08-14T09:35:34.020Z,32.62
2022-08-14T09:38:07.344Z,31.77
2022-08-14T09:40:51.546Z,33.63
2022-08-14T09:43:29.771Z,32.76
2022-08-14T09:46:01.010Z,30.74
2022-08-14T09:48:31.391Z,31.11
2022-08-14T09:54:12.939Z,30.99
2022-08-14T09:56:30.259Z,29.80
2022-08-14T09:58:59.653Z,29.88
2022-08-14T10:01:37.440Z,31.31
2022-08-14T10:04:13.515Z,30.29
2022-08-14T10:06:56.426Z,31.20
2022-08-14T10:09:24.710Z,31.26
2022-08-14T10:11:59.078Z,30.58
2022-08-14T10:14:35.255Z,30.17
2022-08-14T10:17:05.238Z,30.75
2022-08-14T10:19:35.298Z,30.37
2022-08-14T10:23:14.697Z,29.59
2022-08-14T10:24:56.085Z,28.87
2022-08-14T10:27:24.486Z,28.57
2022-08-14T10:29:55.669Z,27.81
2022-08-14T10:32:36.202Z,27.40
2022-08-14T10:35:13.585Z,27.12
2022-08-14T10:37:46.432Z,27.57
2022-08-14T10:40:38.515Z,27.44
2022-08-14T10:43:03.476Z,27.51
2022-08-14T10:45:35.389Z,28.22
2022-08-14T10:48:09.711Z,28.17
2022-08-14T10:50:53.596Z,28.12
2022-08-14T10:53:37.024Z,28.14
2022-08-14T10:56:21.663Z,27.62
2022-08-14T10:59:01.665Z,27.52
2022-08-14T11:01:31.349Z,27.69
2022-08-14T11:04:00.528Z,28.36
2022-08-14T11:06:28.476Z,28.27
2022-08-14T11:08:57.436Z,28.02
2022-08-14T11:11:35.840Z,28.22
2022-08-14T11:14:06.527Z,27.34
2022-08-14T11:16:39.274Z,26.29
2022-08-14T11:19:09.892Z,26.79
2022-08-14T11:21:40.625Z,26.80
2022-08-14T11:24:50.500Z,26.64
2022-08-14T11:27:03.570Z,26.45
2022-08-14T11:29:36.016Z,26.76
2022-08-14T11:32:04.305Z,27.69
2022-08-14T11:34:34.846Z,27.89
2022-08-14T11:37:18.069Z,27.04
2022-08-14T11:39:52.721Z,27.72
2022-08-14T11:42:58.572Z,26.89
2022-08-14T11:45:10.991Z,28.07
2022-08-14T11:47:44.142Z,27.08
2022-08-14T11:50:36.796Z,27.46
2022-08-14T11:53:06.875Z,27.51
2022-08-14T11:55:38.044Z,29.01
2022-08-14T11:58:08.671Z,26.96
2022-08-14T12:00:46.563Z,28.27
2022-08-14T12:03:17.817Z,27.87
2022-08-14T12:05:50.272Z,27.60
2022-08-14T12:08:24.493Z,26.91
2022-08-14T12:10:59.004Z,27.13
2022-08-14T12:13:31.865Z,28.38
2022-08-14T12:16:06.605Z,28.76
2022-08-14T12:18:39.391Z,27.63
2022-08-14T12:21:15.793Z,27.83
2022-08-14T12:23:47.384Z,28.62
2022-08-14T12:26:39.994Z,28.07
2022-08-14T12:29:09.091Z,28.02
2022-08-14T12:31:44.270Z,28.35
2022-08-14T12:34:13.532Z,28.36
2022-08-14T12:36:47.796Z,27.35
2022-08-14T12:39:19.247Z,27.59
2022-08-14T12:41:57.190Z,27.86
2022-08-14T12:44:35.570Z,27.06
2022-08-14T12:47:04.125Z,27.27
2022-08-14T12:49:34.942Z,28.52
2022-08-14T12:52:03.749Z,27.41
2022-08-14T12:54:32.279Z,27.63
2022-08-14T12:57:10.366Z,28.08
2022-08-14T12:59:46.378Z,28.13
2022-08-14T13:02:26.502Z,26.90
2022-08-14T13:04:55.767Z,28.79
2022-08-14T13:07:24.992Z,27.75
2022-08-14T13:09:55.489Z,28.10
2022-08-14T13:12:34.867Z,27.60
2022-08-14T13:15:11.797Z,27.59
2022-08-14T13:17:44.687Z,27.07
2022-08-14T13:20:23.217Z,27.72
2022-08-14T13:22:52.793Z,26.46
2022-08-14T13:25:21.181Z,25.29
2022-08-14T13:27:54.720Z,26.58
2022-08-14T13:30:24.189Z,28.00
2022-08-14T13:32:53.011Z,26.98
2022-08-14T13:35:22.465Z,28.15
2022-08-14T13:37:52.372Z,27.58
2022-08-14T13:40:26.437Z,25.82
2022-08-14T13:42:57.573Z,25.29
2022-08-14T13:45:33.860Z,25.59
2022-08-14T13:48:28.610Z,27.07
2022-08-14T13:51:01.636Z,27.49
2022-08-14T13:53:33.321Z,27.69
2022-08-14T13:56:01.331Z,27.14
2022-08-14T13:58:35.758Z,26.00
2022-08-14T14:01:04.490Z,27.78
2022-08-14T14:03:37.691Z,28.07
2022-08-14T14:06:06.484Z,26.93
2022-08-14T14:08:46.183Z,26.47
2022-08-14T14:11:16.446Z,27.35
2022-08-14T14:13:46.451Z,26.99
2022-08-14T14:16:15.546Z,27.18
2022-08-14T14:18:52.266Z,26.57
2022-08-14T14:21:21.852Z,26.93
2022-08-14T14:23:49.717Z,27.24
2022-08-14T14:26:23.283Z,26.39
2022-08-14T14:28:56.676Z,27.08
2022-08-14T14:31:30.008Z,27.20
2022-08-14T14:33:59.925Z,27.82
2022-08-14T14:36:28.444Z,28.03
2022-08-14T14:38:56.962Z,28.14
2022-08-14T14:41:25.687Z,28.30
2022-08-14T14:43:55.382Z,28.48
2022-08-14T14:46:36.702Z,28.54
2022-08-14T14:49:07.710Z,28.47
2022-08-14T14:51:36.328Z,28.12
2022-08-14T14:54:09.279Z,29.00
2022-08-14T14:56:47.857Z,28.92
2022-08-14T14:59:21.144Z,28.90
2022-08-14T15:01:49.850Z,28.92
2022-08-14T15:04:20.270Z,28.39
2022-08-14T15:06:48.851Z,28.41
2022-08-14T15:09:17.853Z,29.52
2022-08-14T15:11:46.888Z,29.49
2022-08-14T15:14:56.865Z,29.90
2022-08-14T15:17:06.413Z,29.89
2022-08-14T15:19:34.464Z,29.75
2022-08-14T15:22:02.389Z,30.21
2022-08-14T15:24:29.990Z,29.50
2022-08-14T15:27:00.294Z,29.80
2022-08-14T15:29:27.963Z,31.97
2022-08-14T15:31:55.648Z,33.97
2022-08-14T15:34:45.498Z,33.95
2022-08-14T15:37:14.841Z,33.98
2022-08-14T15:39:44.659Z,33.98
2022-08-14T15:42:14.435Z,33.68
2022-08-14T15:44:50.779Z,34.41
2022-08-14T15:47:28.001Z,34.88
2022-08-14T15:49:59.382Z,35.56
2022-08-14T15:52:33.011Z,35.93
2022-08-14T15:55:04.580Z,36.57
2022-08-14T15:57:32.238Z,36.49
2022-08-14T16:00:40.069Z,37.24
2022-08-14T16:03:08.818Z,38.32
2022-08-14T16:05:38.883Z,38.75
2022-08-14T16:08:29.777Z,39.25
2022-08-14T16:10:56.426Z,38.19
2022-08-14T16:13:41.348Z,39.40
2022-08-14T16:16:50.984Z,39.36
2022-08-14T16:18:59.598Z,38.74
2022-08-14T16:24:27.635Z,42.70
2022-08-14T16:27:00.455Z,43.51
2022-08-14T16:29:29.098Z,43.50
2022-08-14T16:31:58.728Z,43.86
2022-08-14T16:34:46.302Z,43.14
2022-08-14T16:37:17.133Z,42.36
2022-08-14T16:39:45.386Z,41.16
2022-08-14T16:40:24.125Z,39.98
2022-08-14T16:42:39.534Z,40.97
2022-08-14T16:45:04.831Z,40.20
2022-08-14T16:47:35.233Z,39.62
2022-08-14T16:50:08.867Z,40.25
2022-08-14T16:52:43.943Z,40.53
2022-08-14T16:55:14.267Z,41.00
2022-08-14T16:57:50.114Z,41.66
2022-08-14T17:00:32.968Z,42.75
2022-08-14T17:03:03.923Z,43.58
2022-08-14T17:05:33.595Z,44.29
2022-08-14T17:08:41.470Z,43.92
2022-08-14T17:11:04.683Z,43.50
2022-08-14T17:13:48.013Z,43.76
2022-08-14T17:16:28.638Z,44.25
2022-08-14T17:19:00.760Z,44.70
2022-08-14T17:21:31.593Z,44.63
2022-08-14T17:24:57.337Z,44.82
2022-08-14T17:26:55.460Z,44.98
2022-08-14T17:29:24.270Z,45.70
2022-08-14T17:32:02.012Z,46.11
2022-08-14T17:34:44.943Z,46.53
2022-08-14T17:37:24.057Z,47.21
2022-08-14T17:40:01.706Z,47.83
2022-08-14T17:42:53.398Z,48.60
2022-08-14T17:45:27.042Z,49.95
2022-08-14T17:47:57.484Z,50.64
2022-08-14T17:51:00.564Z,50.99
2022-08-14T17:53:30.256Z,51.80
2022-08-14T17:56:01.170Z,52.13
2022-08-14T17:58:38.745Z,52.40
2022-08-14T18:01:13.819Z,53.12
2022-08-14T18:03:50.938Z,53.37
2022-08-14T18:06:39.722Z,54.15
2022-08-14T18:09:24.578Z,54.19
2022-08-14T18:11:55.615Z,55.11
2022-08-14T18:14:32.685Z,56.03
2022-08-14T18:17:02.345Z,56.24
2022-08-14T18:19:31.049Z,57.58
2022-08-14T18:22:05.605Z,58.42
2022-08-14T18:24:51.589Z,59.96
2022-08-14T18:27:23.241Z,60.71
2022-08-14T18:29:55.347Z,61.00
2022-08-14T18:32:47.667Z,61.84
2022-08-14T18:35:45.637Z,62.73
2022-08-14T18:38:25.181Z,63.49
2022-08-14T18:40:55.177Z,63.85
2022-08-14T18:43:44.239Z,65.55
2022-08-14T18:46:59.970Z,66.53
2022-08-14T18:49:14.127Z,67.69
2022-08-14T18:51:46.008Z,68.88
2022-08-14T18:54:29.909Z,69.05
2022-08-14T18:57:01.551Z,70.08
2022-08-14T18:59:35.710Z,70.71
2022-08-14T19:02:22.166Z,71.94
2022-08-14T19:04:59.672Z,72.19
2022-08-14T19:07:33.921Z,72.73
2022-08-14T19:10:31.990Z,73.46
2022-08-14T19:13:11.956Z,74.61
2022-08-14T19:15:43.630Z,73.51
2022-08-14T19:18:26.625Z,74.78
2022-08-14T19:20:56.628Z,76.44
2022-08-14T19:23:42.360Z,77.02
2022-08-14T19:26:36.673Z,77.76
2022-08-14T19:29:20.601Z,78.50
2022-08-14T19:31:55.676Z,78.18
2022-08-14T19:34:37.246Z,78.29
2022-08-14T19:37:09.861Z,79.11
2022-08-14T19:39:53.817Z,78.63
2022-08-14T19:42:28.038Z,79.02
2022-08-14T19:44:57.946Z,79.28
2022-08-14T19:47:38.778Z,80.07
2022-08-14T19:50:38.427Z,80.33
2022-08-14T19:53:11.115Z,80.63
2022-08-14T19:55:45.233Z,81.75
2022-08-14T19:58:13.678Z,82.41
2022-08-14T20:00:51.771Z,83.16
2022-08-14T20:03:23.921Z,83.60
2022-08-14T20:05:59.478Z,83.83
2022-08-14T20:11:00.285Z,85.04
2022-08-14T20:12:00.329Z,84.93
2022-08-14T20:14:22.914Z,85.24
2022-08-14T20:17:01.909Z,85.48
2022-08-14T20:19:37.627Z,86.24
2022-08-14T20:22:37.218Z,86.68
2022-08-14T20:24:54.634Z,87.38
2022-08-14T20:27:33.629Z,87.82
2022-08-14T20:30:33.463Z,88.36
2022-08-14T20:33:04.501Z,88.81
2022-08-14T20:35:37.890Z,89.05
2022-08-14T20:38:28.719Z,89.68
2022-08-14T20:40:57.461Z,89.77
2022-08-14T20:43:44.434Z,90.08
2022-08-14T20:46:13.576Z,90.91
2022-08-14T20:48:57.494Z,91.09
2022-08-14T20:51:36.929Z,91.44
2022-08-14T20:54:06.582Z,92.57
2022-08-14T20:56:36.120Z,92.73
2022-08-14T20:59:17.338Z,93.40
2022-08-14T21:01:50.222Z,93.34
2022-08-14T21:04:26.482Z,94.21
2022-08-14T21:07:24.440Z,94.24
2022-08-14T21:10:06.070Z,94.89
2022-08-14T21:12:35.037Z,94.87
2022-08-14T21:15:04.977Z,95.51
2022-08-14T21:17:40.423Z,95.32
2022-08-14T21:20:25.376Z,95.85
2022-08-14T21:22:56.519Z,95.67
2022-08-14T21:25:28.930Z,95.85
2022-08-14T21:28:00.800Z,96.17
2022-08-14T21:30:51.102Z,96.42
2022-08-14T21:33:20.545Z,96.84
2022-08-14T21:35:49.490Z,97.27
2022-08-14T21:38:22.638Z,97.52
2022-08-14T21:41:02.438Z,97.43
2022-08-14T21:43:54.860Z,97.27
2022-08-14T21:46:24.155Z,96.45
2022-08-14T21:48:53.727Z,96.43
2022-08-14T21:51:53.725Z,96.24
2022-08-14T21:54:30.183Z,96.29
2022-08-14T21:56:58.047Z,96.27
2022-08-14T21:59:29.205Z,96.05
2022-08-14T22:02:00.515Z,95.53
2022-08-14T22:04:34.172Z,95.14
2022-08-14T22:07:02.627Z,95.72
2022-08-14T22:09:36.386Z,95.94
2022-08-14T22:12:06.575Z,96.53
2022-08-14T22:14:43.741Z,96.66
2022-08-14T22:17:16.216Z,97.15
2022-08-14T22:19:54.403Z,97.66
2022-08-14T22:22:22.863Z,98.02
2022-08-14T22:24:53.160Z,97.93
2022-08-14T22:27:21.846Z,97.99
2022-08-14T22:29:54.952Z,98.39
2022-08-14T22:32:34.959Z,98.40
2022-08-14T22:35:15.725Z,98.02
2022-08-14T22:37:44.866Z,98.33
2022-08-14T22:40:58.113Z,98.56
2022-08-14T22:43:01.456Z,98.90
2022-08-14T22:45:36.335Z,99.40
2022-08-14T22:48:10.645Z,99.89
2022-08-14T22:50:48.729Z,99.94
2022-08-14T22:53:21.084Z,100.00
2022-08-14T22:55:52.162Z,100.00
2022-08-14T22:58:31.597Z,100.00
2022-08-14T23:01:10.569Z,100.00
2022-08-14T23:03:39.960Z,100.00
2022-08-14T23:07:02.586Z,100.00
2022-08-14T23:09:36.301Z,100.00
2022-08-14T23:11:48.399Z,100.00
2022-08-14T23:14:24.155Z,100.00
2022-08-14T23:16:57.405Z,100.00
2022-08-14T23:19:33.840Z,100.00
2022-08-14T23:22:05.051Z,100.00
2022-08-14T23:24:33.422Z,100.00
2022-08-14T23:27:01.005Z,100.00
2022-08-14T23:29:31.333Z,100.00
2022-08-14T23:31:59.189Z,100.00
2022-08-14T23:34:29.474Z,100.00
2022-08-14T23:36:58.132Z,100.00
2022-08-14T23:39:34.450Z,100.00
2022-08-14T23:42:04.698Z,100.00
2022-08-14T23:44:35.256Z,100.00
2022-08-14T23:47:10.423Z,100.00
2022-08-14T23:50:00.737Z,100.00
2022-08-14T23:52:50.916Z,100.00
2022-08-14T23:55:16.546Z,100.00
2022-08-14T23:57:58.496Z,100.00
